createdAt,value
2018-11-23T00:00:40.346Z,33.33
2018-11-23T00:04:53.167Z,32.10
2018-11-23T00:09:07.499Z,32.17
2018-11-23T00:13:20.303Z,35.00
2018-11-23T00:17:33.296Z,35.10
2018-11-23T00:21:46.044Z,34.73
2018-11-23T00:25:59.324Z,33.70
2018-11-23T00:30:14.278Z,35.20
2018-11-23T00:34:26.942Z,35.57
2018-11-23T00:38:40.323Z,31.97
2018-11-23T00:42:53.750Z,30.63
2018-11-23T00:47:07.488Z,30.90
2018-11-23T00:51:20.540Z,31.90
2018-11-23T00:55:33.234Z,30.00
2018-11-23T00:59:46.194Z,28.27
2018-11-23T01:03:58.969Z,28.63
2018-11-23T01:08:11.937Z,25.90
2018-11-23T01:12:24.543Z,26.30
2018-11-23T01:16:38.351Z,28.03
2018-11-23T01:20:51.338Z,23.70
2018-11-23T01:25:04.656Z,21.23
2018-11-23T01:29:17.276Z,16.80
2018-11-23T01:33:30.634Z,16.07
2018-11-23T01:37:43.877Z,11.27
2018-11-23T01:41:56.580Z,10.83
2018-11-23T01:46:09.618Z,6.70
2018-11-23T01:50:24.091Z,6.27
2018-11-23T01:54:36.909Z,5.57
2018-11-23T01:58:49.938Z,5.73
2018-11-23T02:03:02.644Z,7.07
2018-11-23T02:07:15.748Z,7.40
2018-11-23T02:11:28.391Z,6.97
2018-11-23T02:15:41.441Z,7.03
2018-11-23T02:19:57.189Z,8.37
2018-11-23T02:24:10.062Z,9.37
2018-11-23T02:28:23.427Z,8.33
2018-11-23T02:32:36.123Z,8.07
2018-11-23T02:36:49.143Z,10.33
2018-11-23T02:41:01.816Z,9.17
2018-11-23T02:45:22.715Z,8.40
2018-11-23T02:49:36.728Z,11.37
2018-11-23T02:53:50.241Z,12.87
2018-11-23T02:58:03.312Z,11.57
2018-11-23T03:02:16.407Z,11.87
2018-11-23T03:06:29.246Z,12.60
2018-11-23T03:10:42.316Z,16.73
2018-11-23T03:14:54.999Z,15.43
2018-11-23T03:19:08.618Z,15.53
2018-11-23T03:23:21.700Z,15.50
2018-11-23T03:27:35.010Z,12.40
2018-11-23T03:31:47.635Z,16.77
2018-11-23T03:36:00.891Z,19.67
2018-11-23T03:40:14.053Z,24.77
2018-11-23T03:44:27.317Z,27.40
2018-11-23T03:48:40.292Z,27.23
2018-11-23T03:52:53.371Z,29.93
2018-11-23T03:57:06.141Z,32.17
2018-11-23T04:01:19.171Z,34.57
2018-11-23T04:05:31.777Z,36.13
2018-11-23T04:09:46.075Z,37.40
2018-11-23T04:13:59.027Z,36.23
2018-11-23T04:18:12.315Z,33.00
2018-11-23T04:22:25.404Z,31.63
2018-11-23T04:26:38.379Z,33.97
2018-11-23T04:30:51.317Z,31.60
2018-11-23T04:35:04.496Z,30.63
2018-11-23T04:39:17.339Z,30.20
2018-11-23T04:43:31.041Z,27.23
2018-11-23T04:47:44.035Z,27.70
2018-11-23T04:51:56.637Z,25.17
2018-11-23T04:56:09.680Z,26.60
2018-11-23T05:00:22.667Z,25.83
2018-11-23T05:04:35.445Z,24.53
2018-11-23T05:08:48.777Z,22.53
2018-11-23T05:13:01.860Z,21.20
2018-11-23T05:17:14.711Z,21.63
2018-11-23T05:21:30.426Z,21.80
2018-11-23T05:25:43.257Z,23.37
2018-11-23T05:29:56.516Z,24.07
2018-11-23T05:34:09.196Z,21.73
2018-11-23T05:38:22.450Z,21.33
2018-11-23T05:42:35.528Z,22.27
2018-11-23T05:46:48.472Z,21.97
2018-11-23T05:51:01.527Z,21.00
2018-11-23T05:55:14.291Z,21.13
2018-11-23T05:59:27.286Z,21.87
2018-11-23T06:03:40.366Z,20.07
2018-11-23T06:07:53.133Z,21.17
2018-11-23T06:12:06.167Z,21.57
2018-11-23T06:16:18.788Z,20.63
2018-11-23T06:20:31.780Z,20.53
2018-11-23T06:24:44.533Z,20.77
2018-11-23T06:28:57.739Z,21.80
2018-11-23T06:33:38.831Z,20.50
2018-11-23T06:37:52.046Z,22.33
2018-11-23T06:42:04.818Z,23.50
2018-11-23T06:46:17.811Z,22.80
2018-11-23T06:50:30.635Z,23.80
2018-11-23T06:54:44.884Z,24.50
2018-11-23T06:58:57.663Z,24.30
2018-11-23T07:03:11.768Z,22.37
2018-11-23T07:07:24.759Z,21.37
2018-11-23T07:11:42.646Z,20.57
2018-11-23T07:15:56.533Z,21.87
2018-11-23T07:20:10.908Z,20.73
2018-11-23T07:24:23.695Z,20.77
2018-11-23T08:37:42.929Z,17.60
2018-11-23T08:42:01.521Z,17.17
2018-11-23T08:46:14.377Z,17.07
2018-11-23T08:50:28.781Z,18.50
2018-11-23T08:54:41.100Z,18.27
2018-11-23T08:58:53.614Z,21.20
2018-11-23T09:03:23.397Z,21.00
2018-11-23T09:07:50.494Z,19.87
2018-11-23T09:12:09.894Z,21.13
2018-11-23T09:16:26.121Z,21.90
2018-11-23T09:20:38.571Z,20.47
2018-11-23T09:24:50.780Z,21.53
2018-11-23T09:29:02.897Z,21.80
2018-11-23T09:37:59.976Z,23.63
2018-11-23T09:42:12.550Z,22.87
2018-11-23T09:46:29.398Z,23.03
2018-11-23T09:50:41.829Z,23.63
2018-11-23T09:54:54.301Z,23.13
2018-11-23T09:59:06.384Z,22.23
2018-11-23T10:03:18.506Z,22.90
2018-11-23T10:07:30.671Z,23.83
2018-11-23T10:11:42.880Z,24.00
2018-11-23T10:15:54.940Z,25.33
2018-11-23T10:20:08.796Z,25.40
2018-11-23T10:24:21.370Z,24.53
2018-11-23T10:28:33.706Z,25.43
2018-11-23T10:32:46.580Z,24.73
2018-11-23T10:36:58.564Z,24.03
2018-11-23T10:41:10.704Z,22.60
2018-11-23T10:45:26.429Z,21.87
2018-11-23T10:49:39.539Z,23.83
2018-11-23T10:53:52.975Z,22.73
2018-11-23T10:58:05.172Z,20.93
2018-11-23T11:02:24.991Z,21.93
2018-11-23T11:06:48.145Z,20.07
2018-11-23T11:11:01.300Z,19.97
2018-11-23T11:15:13.456Z,19.97
2018-11-23T11:19:25.610Z,20.07
2018-11-23T11:23:38.896Z,18.47
2018-11-23T11:27:51.481Z,19.80
2018-11-23T11:32:05.201Z,19.07
2018-11-23T11:36:25.323Z,18.17
2018-11-23T11:40:51.278Z,17.10
2018-11-23T11:45:07.894Z,13.93
2018-11-23T11:49:20.859Z,11.73
2018-11-23T11:53:38.684Z,12.90
2018-11-23T11:57:54.950Z,7.77
2018-11-23T12:02:19.208Z,3.03
2018-11-23T12:06:31.228Z,1.07
2018-11-23T12:10:43.251Z,1.00
2018-11-23T12:15:05.695Z,0.93
2018-11-23T12:19:18.125Z,1.17
2018-11-23T12:23:30.310Z,1.33
2018-11-23T12:27:52.868Z,1.33
2018-11-23T12:32:05.108Z,1.60
2018-11-23T12:36:17.488Z,1.27
2018-11-23T12:40:29.572Z,1.53
2018-11-23T12:44:41.620Z,1.40
2018-11-23T12:48:54.300Z,1.30
2018-11-23T12:53:08.123Z,1.20
2018-11-23T12:57:38.359Z,2.23
2018-11-23T13:01:51.825Z,1.40
2018-11-23T13:06:04.384Z,1.00
2018-11-23T13:10:16.910Z,1.20
2018-11-23T13:15:12.644Z,1.13
2018-11-23T13:19:32.948Z,0.97
2018-11-23T13:23:48.428Z,1.20
2018-11-23T13:28:49.459Z,1.20
2018-11-23T13:33:26.233Z,1.10
2018-11-23T13:37:53.628Z,1.30
2018-11-23T13:42:06.488Z,1.20
2018-11-23T13:46:24.698Z,1.47
2018-11-23T13:50:37.897Z,1.17
2018-11-23T13:54:50.414Z,1.53
2018-11-23T13:59:11.194Z,1.43
2018-11-23T14:03:23.832Z,1.03
2018-11-23T14:07:59.899Z,1.20
2018-11-23T14:12:13.478Z,1.53
2018-11-23T14:16:27.813Z,1.50
2018-11-23T14:20:40.479Z,1.30
2018-11-23T14:24:59.269Z,1.37
2018-11-23T14:29:25.088Z,1.60
2018-11-23T14:33:38.785Z,1.43
2018-11-23T14:37:51.677Z,1.57
2018-11-23T14:42:05.230Z,1.37
2018-11-23T14:46:20.618Z,1.43
2018-11-23T14:50:36.133Z,1.57
2018-11-23T14:54:48.224Z,1.27
2018-11-23T14:59:00.326Z,1.27
2018-11-23T15:03:12.709Z,1.27
2018-11-23T15:07:24.854Z,1.20
2018-11-23T15:11:37.141Z,1.67
2018-11-23T15:15:49.334Z,1.20
2018-11-23T15:20:01.530Z,1.10
2018-11-23T15:24:13.692Z,1.37
2018-11-23T15:28:25.843Z,1.30
2018-11-23T15:32:39.202Z,2.10
2018-11-23T15:36:51.740Z,0.97
2018-11-23T15:41:04.011Z,1.50
2018-11-23T15:45:17.991Z,1.30
2018-11-23T15:49:30.193Z,0.80
2018-11-23T15:53:42.403Z,1.40
2018-11-23T15:57:55.712Z,1.13
2018-11-23T16:02:08.256Z,1.50
2018-11-23T16:06:20.519Z,1.53
2018-11-23T16:10:34.876Z,1.40
2018-11-23T16:14:47.320Z,1.50
2018-11-23T16:18:59.552Z,1.40
2018-11-23T16:23:14.530Z,1.43
2018-11-23T16:27:27.035Z,1.10
2018-11-23T16:31:40.415Z,0.73
2018-11-23T16:35:52.442Z,0.80
2018-11-23T16:40:04.803Z,1.40
2018-11-23T16:44:17.438Z,13.50
2018-11-23T16:48:32.422Z,51.27
2018-11-23T16:52:50.153Z,50.70
2018-11-23T16:57:11.021Z,14.27
2018-11-23T17:01:39.674Z,1.97
2018-11-23T17:06:01.965Z,1.50
2018-11-23T17:10:19.464Z,1.20
2018-11-23T17:14:32.926Z,1.53
2018-11-23T17:18:46.513Z,1.63
2018-11-23T17:23:02.746Z,1.47
2018-11-23T17:27:17.161Z,1.60
2018-11-23T17:31:44.896Z,1.60
2018-11-23T17:36:03.522Z,1.23
2018-11-23T17:40:21.330Z,1.20
2018-11-23T17:44:40.611Z,1.50
2018-11-23T17:49:03.737Z,1.70
2018-11-23T17:53:27.714Z,2.03
2018-11-23T17:57:49.090Z,1.90
2018-11-23T18:02:06.677Z,2.13
2018-11-23T18:06:21.050Z,2.00
2018-11-23T18:10:42.199Z,2.10
2018-11-23T18:14:59.223Z,3.40
2018-11-23T18:19:13.275Z,2.30
2018-11-23T18:23:31.837Z,3.30
2018-11-23T18:27:48.104Z,3.20
2018-11-23T18:32:01.337Z,3.87
2018-11-23T18:36:23.753Z,3.33
2018-11-23T18:40:37.699Z,4.07
2018-11-23T18:44:58.178Z,3.60
2018-11-23T18:49:19.446Z,3.17
2018-11-23T18:53:43.243Z,3.37
2018-11-23T18:58:04.305Z,3.00
2018-11-23T19:02:23.121Z,5.03
2018-11-23T19:06:42.347Z,3.27
2018-11-23T19:11:00.188Z,2.60
2018-11-23T19:15:25.144Z,2.53
2018-11-23T19:19:39.664Z,2.63
2018-11-23T19:23:53.732Z,2.93
2018-11-23T19:28:21.625Z,4.67
2018-11-23T19:32:41.982Z,4.73
2018-11-23T19:37:00.779Z,4.70
2018-11-23T19:41:15.105Z,3.90
2018-11-23T19:45:35.896Z,3.60
2018-11-23T19:49:54.646Z,3.07
2018-11-23T19:54:09.805Z,1.37
2018-11-23T19:58:35.663Z,0.97
2018-11-23T20:02:55.660Z,0.60
2018-11-23T20:07:27.601Z,0.70
2018-11-23T20:11:46.705Z,0.60
2018-11-23T20:24:44.910Z,0.50
2018-11-23T20:29:05.094Z,0.40
2018-11-23T20:37:54.168Z,0.60
2018-11-23T20:42:09.459Z,0.67
2018-11-23T20:46:26.323Z,0.63
2018-11-23T20:50:56.522Z,0.80
2018-11-23T20:55:17.067Z,1.10
2018-11-23T20:59:34.715Z,0.67
2018-11-23T21:03:54.039Z,0.73
2018-11-23T21:08:19.338Z,0.90
2018-11-23T21:12:34.691Z,1.90
2018-11-23T21:16:53.301Z,1.97
2018-11-23T21:21:15.314Z,2.70
2018-11-23T21:25:28.847Z,2.50
2018-11-23T21:30:00.093Z,2.90
2018-11-23T21:34:22.738Z,3.37
2018-11-23T21:38:41.253Z,5.67
2018-11-23T21:43:01.347Z,4.37
2018-11-23T21:47:18.468Z,4.13
2018-11-23T21:51:42.769Z,3.53
2018-11-23T21:56:09.327Z,3.90
2018-11-23T22:00:22.357Z,3.27
2018-11-23T22:04:36.955Z,3.60
2018-11-23T22:08:59.961Z,3.30
2018-11-23T22:13:24.393Z,4.20
2018-11-23T22:17:46.206Z,3.77
2018-11-23T22:22:07.264Z,4.13
2018-11-23T22:26:24.044Z,3.87
2018-11-23T22:30:51.029Z,4.20
2018-11-23T22:35:11.753Z,3.20
2018-11-23T22:39:24.861Z,0.60
2018-11-23T22:43:37.355Z,0.40
2018-11-23T22:47:51.642Z,0.60
2018-11-23T22:52:04.495Z,0.57
2018-11-23T22:56:17.383Z,0.60
2018-11-23T23:00:34.809Z,0.60
2018-11-23T23:04:47.345Z,0.80
2018-11-23T23:08:59.658Z,0.63
2018-11-23T23:13:14.018Z,0.63
2018-11-23T23:17:27.448Z,0.90
2018-11-23T23:21:39.887Z,0.80
2018-11-23T23:25:52.273Z,0.50
2018-11-23T23:30:37.477Z,0.50
2018-11-23T23:34:52.736Z,0.47
2018-11-23T23:39:05.636Z,0.67
2018-11-23T23:43:19.538Z,0.30
2018-11-23T23:47:31.773Z,0.40
2018-11-23T23:51:44.092Z,0.40
2018-11-23T23:55:56.761Z,0.40
